Time;durP1;ratioP1;P1;durP2;ratioP2;P2;SDS_P1;SDS_P2;PMS_P1;PMS_P2;Temp;Humidity;BMP_temperature;BMP_pressure;BME280_temperature;BME280_humidity;BME280_pressure;Samples;Min_cycle;Max_cycle;Signal;HPM_P1;HPM_P2
2021/12/25 00:00:10;;;;;;;;;;;2.00;90.20;;;;;;5012531;28;20008;-73
2021/12/25 00:02:35;;;;;;;;;;;2.00;90.20;;;;;;5012106;28;19992;-74
2021/12/25 00:05:01;;;;;;;;;;;2.00;90.30;;;;;;5012392;28;20005;-74
2021/12/25 00:07:27;;;;;;;;;;;1.90;90.10;;;;;;5012273;28;19913;-76
2021/12/25 00:09:53;;;;;;;;;;;1.90;90.60;;;;;;5012224;28;20008;-73
2021/12/25 00:12:18;;;;;;;;;;;1.80;90.40;;;;;;5012032;28;20324;-73
2021/12/25 00:14:44;;;;;;;;;;;1.80;90.40;;;;;;5012465;28;20186;-74
2021/12/25 00:17:09;;;;;;;;;;;1.80;90.40;;;;;;5010896;28;20391;-73
2021/12/25 00:19:35;;;;;;;;;;;1.80;90.50;;;;;;5011686;28;20071;-74
2021/12/25 00:22:00;;;;;;;;;;;1.80;90.30;;;;;;5011973;28;19929;-74
2021/12/25 00:24:26;;;;;;;;;;;1.80;90.50;;;;;;5011044;28;20347;-73
2021/12/25 00:29:53;;;;;;;;;;;1.80;90.80;;;;;;5011952;28;19924;-73
2021/12/25 00:34:47;;;;;;;;;;;1.80;90.40;;;;;;5011961;28;19917;-74
2021/12/25 00:37:13;;;;;;;;;;;1.80;90.50;;;;;;5011714;28;20386;-73
2021/12/25 00:39:39;;;;;;;;;;;1.70;90.30;;;;;;5011767;28;19921;-73
2021/12/25 00:42:05;;;;;;;;;;;1.70;90.80;;;;;;5012134;28;20376;-75
2021/12/25 00:44:31;;;;;;;;;;;1.70;90.70;;;;;;5011667;28;19913;-73
2021/12/25 00:46:57;;;;;;;;;;;1.60;90.70;;;;;;5012084;28;19918;-74
2021/12/25 00:49:23;;;;;;;;;;;1.60;90.90;;;;;;5014632;28;19913;-72
2021/12/25 00:51:49;;;;;;;;;;;1.70;91.00;;;;;;5015840;28;19914;-73
2021/12/25 00:54:15;;;;;;;;;;;1.60;91.00;;;;;;5014519;28;19910;-72
2021/12/25 00:56:41;;;;;;;;;;;1.70;91.10;;;;;;5015779;28;19927;-73
2021/12/25 00:59:07;;;;;;;;;;;1.60;91.20;;;;;;5015587;28;19913;-73
2021/12/25 01:01:32;;;;;;;;;;;1.70;91.20;;;;;;5015388;28;19949;-73
2021/12/25 01:03:58;;;;;;;;;;;1.60;91.10;;;;;;5015636;28;19948;-72
2021/12/25 01:06:23;;;;;;;;;;;1.60;91.10;;;;;;5015374;28;19925;-73
2021/12/25 01:08:49;;;;;;;;;;;1.60;91.20;;;;;;5015674;28;19906;-73
2021/12/25 01:11:15;;;;;;;;;;;1.60;91.40;;;;;;5015157;28;20188;-73
2021/12/25 01:13:47;;;;;;;;;;;1.60;91.40;;;;;;5014013;28;19959;-73
2021/12/25 01:16:53;;;;;;;;;;;1.60;91.40;;;;;;5015018;28;19985;-73
2021/12/25 01:28:12;;;;;;;;;;;1.40;91.30;;;;;;5030458;28;19924;-72
2021/12/25 01:30:46;;;;;;;;;;;1.40;91.50;;;;;;5014793;28;19975;-74
2021/12/25 01:36:23;;;;;;;;;;;1.30;91.50;;;;;;5014713;28;19921;-72
2021/12/25 01:38:54;;;;;;;;;;;1.30;91.60;;;;;;5014746;28;19960;-72
2021/12/25 01:47:46;;;;;;;;;;;1.10;91.30;;;;;;5014821;28;19927;-72
2021/12/25 01:49:55;;;;;;;;;;;1.00;91.10;;;;;;5014497;28;19913;-72
2021/12/25 01:52:30;;;;;;;;;;;1.00;91.10;;;;;;5014330;28;20351;-73
2021/12/25 01:55:00;;;;;;;;;;;0.90;90.90;;;;;;5014365;28;19913;-72
2021/12/25 01:57:26;;;;;;;;;;;0.90;91.00;;;;;;5014539;28;19909;-72
2021/12/25 01:59:51;;;;;;;;;;;0.90;91.00;;;;;;5013706;28;19920;-72
2021/12/25 02:02:17;;;;;;;;;;;0.90;91.00;;;;;;5014426;28;19913;-72
2021/12/25 02:04:42;;;;;;;;;;;0.80;91.00;;;;;;5013900;28;19913;-73
2021/12/25 02:07:08;;;;;;;;;;;0.80;91.20;;;;;;5013243;28;20398;-72
2021/12/25 02:09:33;;;;;;;;;;;0.80;91.10;;;;;;5014241;28;19920;-72
2021/12/25 02:11:59;;;;;;;;;;;0.80;91.10;;;;;;5013585;28;20363;-72
2021/12/25 02:14:25;;;;;;;;;;;0.80;91.10;;;;;;5012926;28;19941;-72
2021/12/25 02:16:56;;;;;;;;;;;0.80;91.00;;;;;;5014132;28;19956;-72
2021/12/25 02:19:35;;;;;;;;;;;0.70;90.90;;;;;;5014034;28;19983;-72
2021/12/25 02:22:02;;;;;;;;;;;0.80;91.00;;;;;;5013996;28;19917;-72
2021/12/25 02:24:28;;;;;;;;;;;0.70;90.90;;;;;;5013983;28;19956;-72
2021/12/25 02:26:55;;;;;;;;;;;0.60;90.70;;;;;;5014259;28;19941;-72
2021/12/25 02:29:20;;;;;;;;;;;0.60;90.80;;;;;;5014037;28;20255;-72
2021/12/25 02:31:46;;;;;;;;;;;0.60;91.00;;;;;;5013612;28;20378;-73
2021/12/25 02:34:12;;;;;;;;;;;0.60;90.90;;;;;;5013623;28;19924;-73
2021/12/25 02:36:38;;;;;;;;;;;0.60;90.90;;;;;;5027891;28;19917;-72
2021/12/25 02:39:03;;;;;;;;;;;0.60;90.90;;;;;;5032611;28;19931;-73
2021/12/25 02:41:29;;;;;;;;;;;0.60;90.90;;;;;;5033510;28;19971;-73
2021/12/25 02:43:55;;;;;;;;;;;0.50;90.80;;;;;;5033436;28;19921;-73
2021/12/25 02:46:22;;;;;;;;;;;0.50;90.90;;;;;;5032316;28;20346;-72
2021/12/25 02:48:47;;;;;;;;;;;0.50;90.90;;;;;;5033267;28;20361;-73
2021/12/25 02:51:13;;;;;;;;;;;0.40;90.80;;;;;;5033458;28;20008;-71
2021/12/25 02:53:39;;;;;;;;;;;0.40;90.80;;;;;;5032270;28;19920;-72
2021/12/25 02:56:08;;;;;;;;;;;0.30;90.70;;;;;;5032934;28;19917;-72
2021/12/25 02:58:33;;;;;;;;;;;0.40;90.90;;;;;;5032978;28;19961;-72
2021/12/25 03:01:01;;;;;;;;;;;0.40;90.90;;;;;;5032992;28;19976;-73
2021/12/25 03:03:27;;;;;;;;;;;0.30;90.90;;;;;;5033118;28;19938;-72
2021/12/25 03:05:53;;;;;;;;;;;0.40;91.10;;;;;;5033331;28;19913;-73
2021/12/25 03:08:19;;;;;;;;;;;0.30;91.10;;;;;;5033065;28;19913;-72
2021/12/25 03:10:45;;;;;;;;;;;0.30;91.20;;;;;;5032261;28;19998;-73
2021/12/25 03:15:45;;;;;;;;;;;0.30;91.50;;;;;;5033180;28;19924;-72
2021/12/25 03:18:15;;;;;;;;;;;0.20;91.60;;;;;;5032100;28;19921;-72
2021/12/25 03:20:44;;;;;;;;;;;0.20;91.80;;;;;;5032794;28;19917;-72
2021/12/25 03:23:15;;;;;;;;;;;0.20;92.00;;;;;;5032676;28;20640;-72
2021/12/25 03:25:40;;;;;;;;;;;0.10;92.10;;;;;;5032472;28;19917;-73
2021/12/25 03:28:06;;;;;;;;;;;0.20;92.30;;;;;;5031551;28;19917;-71
2021/12/25 03:30:36;;;;;;;;;;;0.20;92.40;;;;;;5032264;28;19953;-73
2021/12/25 03:33:02;;;;;;;;;;;0.20;92.50;;;;;;5031706;28;19959;-73
2021/12/25 03:35:28;;;;;;;;;;;0.20;92.60;;;;;;5031154;28;19956;-73
2021/12/25 03:37:53;;;;;;;;;;;0.10;92.70;;;;;;5032434;28;19913;-73
2021/12/25 03:40:19;;;;;;;;;;;0.20;92.80;;;;;;5032099;28;19914;-72
2021/12/25 03:42:44;;;;;;;;;;;0.10;92.80;;;;;;5031215;28;20193;-72
2021/12/25 03:45:10;;;;;;;;;;;0.10;92.90;;;;;;5032469;28;19913;-72
2021/12/25 03:47:38;;;;;;;;;;;0.10;93.00;;;;;;5031204;28;19960;-72
2021/12/25 03:58:25;;;;;;;;;;;0.10;93.20;;;;;;5032336;28;19944;-72
2021/12/25 04:00:51;;;;;;;;;;;0.10;93.20;;;;;;5031128;28;20376;-73
2021/12/25 04:03:26;;;;;;;;;;;0.10;93.20;;;;;;5031825;28;19920;-71
2021/12/25 04:05:51;;;;;;;;;;;0.00;93.10;;;;;;5032219;28;19917;-72
2021/12/25 04:08:21;;;;;;;;;;;0.00;93.10;;;;;;5030872;28;19924;-72
2021/12/25 04:10:50;;;;;;;;;;;0.00;93.00;;;;;;5032039;28;19920;-74
2021/12/25 04:13:16;;;;;;;;;;;-0.10;93.00;;;;;;5030639;28;19914;-73
2021/12/25 04:15:42;;;;;;;;;;;-0.10;93.10;;;;;;5031824;28;19929;-72
2021/12/25 04:18:07;;;;;;;;;;;-0.10;93.10;;;;;;5032168;28;20228;-73
2021/12/25 04:20:33;;;;;;;;;;;-0.10;92.90;;;;;;5031586;28;20224;-72
2021/12/25 04:23:06;;;;;;;;;;;-0.10;92.90;;;;;;5031644;28;19913;-72
2021/12/25 04:25:33;;;;;;;;;;;-0.20;92.90;;;;;;5031683;28;20109;-72
2021/12/25 04:28:07;;;;;;;;;;;-0.20;92.80;;;;;;5031651;28;19971;-72
2021/12/25 04:42:32;;;;;;;;;;;-0.20;92.60;;;;;;5032114;28;20316;-73
2021/12/25 05:03:34;;;;;;;;;;;-0.50;92.00;;;;;;5032218;28;19975;-73
2021/12/25 05:06:00;;;;;;;;;;;-0.50;92.00;;;;;;5031387;28;19968;-72
2021/12/25 05:08:25;;;;;;;;;;;-0.50;92.00;;;;;;5031340;28;19944;-72
2021/12/25 05:10:51;;;;;;;;;;;-0.60;91.90;;;;;;5030186;28;20334;-72
2021/12/25 05:13:16;;;;;;;;;;;-0.60;92.00;;;;;;5031275;28;19944;-72
2021/12/25 05:15:42;;;;;;;;;;;-0.60;91.80;;;;;;5031171;28;19926;-72
2021/12/25 05:18:08;;;;;;;;;;;-0.60;91.90;;;;;;5031699;28;19995;-72
2021/12/25 05:20:33;;;;;;;;;;;-0.60;91.90;;;;;;5031168;28;19913;-72
2021/12/25 05:22:59;;;;;;;;;;;-0.60;91.80;;;;;;5031160;28;20255;-72
2021/12/25 05:25:24;;;;;;;;;;;-0.60;91.80;;;;;;5031210;28;19917;-73
2021/12/25 05:27:50;;;;;;;;;;;-0.70;91.60;;;;;;5031135;28;19979;-72
2021/12/25 05:30:16;;;;;;;;;;;-0.70;91.90;;;;;;5031112;28;19940;-72
2021/12/25 05:32:41;;;;;;;;;;;-0.70;91.70;;;;;;5030331;28;20055;-72
2021/12/25 05:35:07;;;;;;;;;;;-0.70;91.70;;;;;;5034583;28;19920;-73
2021/12/25 05:37:33;;;;;;;;;;;-0.70;91.70;;;;;;5034614;28;19913;-73
2021/12/25 05:39:58;;;;;;;;;;;-0.70;91.70;;;;;;5034655;28;19915;-72
2021/12/25 05:42:24;;;;;;;;;;;-0.60;91.70;;;;;;5034542;28;20331;-73
2021/12/25 05:44:50;;;;;;;;;;;-0.70;91.60;;;;;;5033850;28;19913;-73
2021/12/25 05:47:15;;;;;;;;;;;-0.70;91.50;;;;;;5034311;28;20224;-72
2021/12/25 05:49:41;;;;;;;;;;;-0.60;91.60;;;;;;5034420;28;19917;-73
2021/12/25 05:52:07;;;;;;;;;;;-0.70;91.60;;;;;;5033282;28;19929;-73
2021/12/25 05:54:33;;;;;;;;;;;-0.70;91.60;;;;;;5033301;28;19932;-72
2021/12/25 05:56:58;;;;;;;;;;;-0.70;91.40;;;;;;5034571;28;19964;-73
2021/12/25 05:59:24;;;;;;;;;;;-0.60;91.50;;;;;;5034182;28;19921;-73
2021/12/25 06:01:49;;;;;;;;;;;-0.70;91.30;;;;;;5034303;28;19913;-73
2021/12/25 06:04:15;;;;;;;;;;;-0.70;91.30;;;;;;5033987;28;19945;-73
2021/12/25 06:06:40;;;;;;;;;;;-0.70;91.40;;;;;;5034127;28;19913;-72
2021/12/25 06:09:07;;;;;;;;;;;-0.70;91.30;;;;;;5034529;28;19952;-73
2021/12/25 06:11:34;;;;;;;;;;;-0.70;91.30;;;;;;5034023;28;20000;-73
2021/12/25 06:14:09;;;;;;;;;;;-0.70;91.30;;;;;;5033833;28;19924;-72
2021/12/25 06:16:35;;;;;;;;;;;-0.70;91.30;;;;;;5033751;28;20320;-73
2021/12/25 06:19:00;;;;;;;;;;;-0.70;91.40;;;;;;5033617;28;19965;-72
2021/12/25 06:21:26;;;;;;;;;;;-0.80;91.40;;;;;;5033924;28;19924;-72
2021/12/25 06:23:51;;;;;;;;;;;-0.80;91.40;;;;;;5033939;28;19909;-72
2021/12/25 06:26:17;;;;;;;;;;;-0.70;91.40;;;;;;5033722;28;20032;-72
2021/12/25 06:28:42;;;;;;;;;;;-0.70;91.40;;;;;;5033793;28;20334;-72
2021/12/25 06:31:08;;;;;;;;;;;-0.70;91.50;;;;;;5033147;28;20241;-72
2021/12/25 06:33:33;;;;;;;;;;;-0.60;91.50;;;;;;5033749;28;20007;-72
2021/12/25 06:35:59;;;;;;;;;;;-0.70;91.40;;;;;;5034071;28;19936;-72
2021/12/25 06:38:24;;;;;;;;;;;-0.70;91.40;;;;;;5033443;28;19913;-72
2021/12/25 06:40:50;;;;;;;;;;;-0.70;91.50;;;;;;5033654;28;19917;-73
2021/12/25 06:43:16;;;;;;;;;;;-0.70;91.50;;;;;;5032375;28;20331;-73
2021/12/25 06:45:41;;;;;;;;;;;-0.70;91.50;;;;;;5032423;28;19917;-73
2021/12/25 06:48:07;;;;;;;;;;;-0.60;91.70;;;;;;5033803;28;19925;-73
2021/12/25 06:50:32;;;;;;;;;;;-0.70;91.20;;;;;;5033370;28;19924;-74
2021/12/25 06:52:58;;;;;;;;;;;-0.80;91.30;;;;;;5033531;28;20327;-73
2021/12/25 06:55:24;;;;;;;;;;;-0.90;91.30;;;;;;5033214;28;20278;-72
2021/12/25 06:57:54;;;;;;;;;;;-0.80;91.50;;;;;;5033217;28;19979;-73
2021/12/25 07:00:20;;;;;;;;;;;-0.60;91.60;;;;;;5032089;28;19909;-72
2021/12/25 07:02:46;;;;;;;;;;;-0.80;91.50;;;;;;5033904;28;19917;-72
2021/12/25 07:05:11;;;;;;;;;;;-0.70;91.40;;;;;;5031812;28;20473;-73
2021/12/25 07:07:37;;;;;;;;;;;-0.70;91.30;;;;;;5033076;28;19945;-72
2021/12/25 07:10:03;;;;;;;;;;;-0.70;91.20;;;;;;5032838;28;19913;-72
2021/12/25 07:12:31;;;;;;;;;;;-0.80;91.20;;;;;;5031861;28;19909;-72
2021/12/25 07:14:57;;;;;;;;;;;-0.70;91.20;;;;;;5033188;28;20404;-72
2021/12/25 07:17:22;;;;;;;;;;;-0.80;91.00;;;;;;5032879;28;19921;-73
2021/12/25 07:19:48;;;;;;;;;;;-0.80;91.00;;;;;;5032793;28;19970;-72
2021/12/25 07:22:14;;;;;;;;;;;-0.80;91.00;;;;;;5032583;28;20201;-73
2021/12/25 07:24:39;;;;;;;;;;;-0.80;90.90;;;;;;5031868;28;19925;-73
2021/12/25 07:27:05;;;;;;;;;;;-0.80;90.90;;;;;;5033081;28;19909;-73
2021/12/25 07:29:31;;;;;;;;;;;-0.80;90.90;;;;;;5032511;28;19924;-72
2021/12/25 07:31:57;;;;;;;;;;;-0.80;90.90;;;;;;5032460;28;19940;-73
2021/12/25 07:34:22;;;;;;;;;;;-0.80;90.80;;;;;;5032497;28;20275;-74
2021/12/25 07:36:47;;;;;;;;;;;-0.80;90.60;;;;;;5032366;28;19917;-73
2021/12/25 07:39:13;;;;;;;;;;;-0.80;90.70;;;;;;5033263;28;20316;-72
2021/12/25 07:41:39;;;;;;;;;;;-0.80;90.80;;;;;;5032394;28;19928;-73
2021/12/25 07:44:04;;;;;;;;;;;-0.90;90.70;;;;;;5031242;28;19936;-73
2021/12/25 07:46:30;;;;;;;;;;;-0.90;90.90;;;;;;5031596;28;19928;-73
2021/12/25 07:48:55;;;;;;;;;;;-0.80;90.90;;;;;;5032216;28;19917;-73
2021/12/25 07:51:21;;;;;;;;;;;-0.70;90.90;;;;;;5032177;28;20092;-73
2021/12/25 07:53:46;;;;;;;;;;;-0.70;90.80;;;;;;5032439;28;19991;-73
2021/12/25 07:56:12;;;;;;;;;;;-0.70;90.90;;;;;;5031614;28;19930;-72
2021/12/25 07:58:38;;;;;;;;;;;-0.80;90.60;;;;;;5032309;28;19913;-72
2021/12/25 08:01:03;;;;;;;;;;;-0.90;90.60;;;;;;5032059;28;19940;-73
2021/12/25 08:03:29;;;;;;;;;;;-0.90;90.80;;;;;;5032183;28;19954;-73
2021/12/25 08:05:54;;;;;;;;;;;-0.90;90.70;;;;;;5032527;28;19916;-72
2021/12/25 08:08:20;;;;;;;;;;;-1.00;90.90;;;;;;5031861;28;19979;-73
2021/12/25 08:10:46;;;;;;;;;;;-0.90;91.00;;;;;;5030958;28;19924;-73
2021/12/25 08:13:13;;;;;;;;;;;-0.70;90.90;;;;;;5030884;28;19924;-72
2021/12/25 08:15:40;;;;;;;;;;;-0.80;90.70;;;;;;5031691;28;20063;-72
2021/12/25 08:18:06;;;;;;;;;;;-0.70;90.80;;;;;;5032770;28;20338;-72
2021/12/25 08:20:33;;;;;;;;;;;-0.60;90.80;;;;;;5031989;28;19927;-73
2021/12/25 08:22:58;;;;;;;;;;;-0.60;90.60;;;;;;5031719;28;20342;-73
2021/12/25 08:25:24;;;;;;;;;;;-0.50;90.50;;;;;;5031866;28;19924;-72
2021/12/25 08:27:50;;;;;;;;;;;-0.50;90.30;;;;;;5031617;28;20016;-73
2021/12/25 08:30:17;;;;;;;;;;;-0.50;90.30;;;;;;5031594;28;19913;-73
2021/12/25 08:32:43;;;;;;;;;;;-0.50;90.20;;;;;;5031894;28;20351;-72
2021/12/25 08:35:10;;;;;;;;;;;-0.50;90.10;;;;;;5031692;28;19924;-72
2021/12/25 08:37:35;;;;;;;;;;;-0.50;90.20;;;;;;5031639;28;20020;-72
2021/12/25 08:40:02;;;;;;;;;;;-0.40;90.20;;;;;;5031372;28;20021;-72
2021/12/25 08:42:27;;;;;;;;;;;-0.50;90.10;;;;;;5031349;28;19968;-73
2021/12/25 08:45:04;;;;;;;;;;;-0.50;90.00;;;;;;5032177;28;19902;-74
2021/12/25 08:47:31;;;;;;;;;;;-0.50;89.80;;;;;;5030654;28;20011;-73
2021/12/25 08:49:57;;;;;;;;;;;-0.50;89.80;;;;;;5031504;28;19917;-73
2021/12/25 08:52:24;;;;;;;;;;;-0.40;89.90;;;;;;5031422;28;19967;-72
2021/12/25 08:54:50;;;;;;;;;;;-0.50;89.50;;;;;;5030225;28;20349;-73
2021/12/25 08:57:19;;;;;;;;;;;-0.40;89.50;;;;;;5031496;28;19917;-73
2021/12/25 08:59:45;;;;;;;;;;;-0.50;89.20;;;;;;5032011;28;19905;-73
2021/12/25 09:02:14;;;;;;;;;;;-0.40;89.60;;;;;;5031681;28;19927;-73
2021/12/25 09:04:41;;;;;;;;;;;-0.40;89.70;;;;;;5031487;28;19917;-73
2021/12/25 09:07:06;;;;;;;;;;;-0.40;89.70;;;;;;5031291;28;19956;-71
2021/12/25 09:09:32;;;;;;;;;;;-0.30;90.00;;;;;;5034412;28;19953;-73
2021/12/25 09:11:57;;;;;;;;;;;-0.40;89.80;;;;;;5035646;28;19909;-73
2021/12/25 09:14:23;;;;;;;;;;;-0.50;89.80;;;;;;5035055;28;19925;-72
2021/12/25 09:16:49;;;;;;;;;;;-0.50;90.00;;;;;;5033865;28;19917;-72
2021/12/25 09:19:14;;;;;;;;;;;-0.40;90.10;;;;;;5034960;28;20331;-73
2021/12/25 09:21:40;;;;;;;;;;;-0.50;90.00;;;;;;5034838;28;19920;-73
2021/12/25 09:24:06;;;;;;;;;;;-0.50;90.10;;;;;;5035418;28;20567;-72
2021/12/25 09:26:31;;;;;;;;;;;-0.50;89.90;;;;;;5033785;28;19923;-72
2021/12/25 09:28:57;;;;;;;;;;;-0.50;89.80;;;;;;5035023;28;20339;-72
2021/12/25 09:31:23;;;;;;;;;;;-0.50;89.70;;;;;;5033486;28;19925;-73
2021/12/25 09:33:49;;;;;;;;;;;-0.50;89.80;;;;;;5033859;28;19985;-74
2021/12/25 09:36:15;;;;;;;;;;;-0.50;89.80;;;;;;5034784;28;20018;-73
2021/12/25 09:38:41;;;;;;;;;;;-0.40;89.90;;;;;;5035116;28;19957;-73
2021/12/25 09:41:06;;;;;;;;;;;-0.60;90.00;;;;;;5034512;28;19921;-72
2021/12/25 09:43:32;;;;;;;;;;;-0.60;90.10;;;;;;5034620;28;19935;-73
2021/12/25 09:45:58;;;;;;;;;;;-0.50;90.10;;;;;;5034377;28;19913;-73
2021/12/25 09:48:23;;;;;;;;;;;-0.60;90.10;;;;;;5034357;28;19909;-72
2021/12/25 09:50:49;;;;;;;;;;;-0.60;90.30;;;;;;5033836;28;19909;-72
2021/12/25 09:53:15;;;;;;;;;;;-0.60;90.10;;;;;;5034490;28;19975;-72
2021/12/25 09:55:42;;;;;;;;;;;-0.60;90.20;;;;;;5034176;28;19932;-72
2021/12/25 09:58:07;;;;;;;;;;;-0.60;90.20;;;;;;5033170;28;19920;-73
2021/12/25 10:00:34;;;;;;;;;;;-0.60;90.30;;;;;;5034070;28;20879;-74
2021/12/25 10:03:00;;;;;;;;;;;-0.50;90.40;;;;;;5034613;28;19955;-72
2021/12/25 10:05:27;;;;;;;;;;;-0.30;90.40;;;;;;5034009;28;19956;-73
2021/12/25 10:08:12;;;;;;;;;;;-0.50;90.30;;;;;;5034111;28;20450;-73
2021/12/25 10:10:40;;;;;;;;;;;-0.50;90.40;;;;;;5034112;28;19941;-71
2021/12/25 10:13:16;;;;;;;;;;;-0.40;90.30;;;;;;5032837;28;19919;-72
2021/12/25 10:15:42;;;;;;;;;;;-0.40;90.20;;;;;;5033819;28;20308;-72
2021/12/25 10:18:07;;;;;;;;;;;-0.40;90.20;;;;;;5034664;28;20016;-73
2021/12/25 10:20:33;;;;;;;;;;;-0.40;90.10;;;;;;5033730;28;19931;-72
2021/12/25 10:22:59;;;;;;;;;;;-0.30;90.00;;;;;;5034097;28;19913;-72
2021/12/25 10:25:32;;;;;;;;;;;-0.30;89.90;;;;;;5033885;28;20343;-73
2021/12/25 10:27:58;;;;;;;;;;;-0.30;89.70;;;;;;5033790;28;20009;-73
2021/12/25 10:30:24;;;;;;;;;;;-0.10;89.80;;;;;;5032599;28;19909;-71
2021/12/25 10:32:50;;;;;;;;;;;-0.20;89.80;;;;;;5034185;28;19916;-72
2021/12/25 10:35:19;;;;;;;;;;;-0.10;89.20;;;;;;5033591;28;19914;-72
2021/12/25 10:37:46;;;;;;;;;;;-0.10;89.10;;;;;;5033554;28;19913;-72
2021/12/25 10:40:31;;;;;;;;;;;-0.10;88.20;;;;;;5033420;28;19928;-72
2021/12/25 10:42:58;;;;;;;;;;;-0.10;87.60;;;;;;5032365;28;19921;-73
2021/12/25 10:45:26;;;;;;;;;;;0.00;87.70;;;;;;5033745;28;19928;-72
2021/12/25 10:48:06;;;;;;;;;;;0.00;87.10;;;;;;5034057;28;20354;-72
2021/12/25 10:50:36;;;;;;;;;;;-0.10;86.50;;;;;;5033287;28;19932;-72
2021/12/25 10:53:05;;;;;;;;;;;-0.10;86.10;;;;;;5032190;28;20373;-73
2021/12/25 10:55:30;;;;;;;;;;;-0.10;85.90;;;;;;5033089;28;19917;-72
2021/12/25 10:57:58;;;;;;;;;;;-0.10;86.00;;;;;;5033600;28;19944;-73
2021/12/25 11:00:24;;;;;;;;;;;-0.10;85.70;;;;;;5032508;28;20358;-72
2021/12/25 11:02:49;;;;;;;;;;;0.00;85.80;;;;;;5034015;28;19905;-72
2021/12/25 11:05:25;;;;;;;;;;;0.00;85.50;;;;;;5032882;28;20305;-72
2021/12/25 11:08:12;;;;;;;;;;;0.10;85.70;;;;;;5033085;28;19917;-72
2021/12/25 11:10:44;;;;;;;;;;;0.00;84.70;;;;;;5032929;28;19913;-72
2021/12/25 11:13:39;;;;;;;;;;;0.10;84.60;;;;;;5032933;28;19913;-72
2021/12/25 11:16:11;;;;;;;;;;;0.00;83.70;;;;;;5032343;28;19917;-72
2021/12/25 11:19:05;;;;;;;;;;;0.10;83.70;;;;;;5031882;28;19924;-73
2021/12/25 11:21:56;;;;;;;;;;;0.10;83.30;;;;;;5032768;28;19920;-73
2021/12/25 11:24:32;;;;;;;;;;;0.10;83.00;;;;;;5032871;28;19909;-72
2021/12/25 11:26:59;;;;;;;;;;;0.10;82.60;;;;;;5033602;28;19912;-72
2021/12/25 11:29:25;;;;;;;;;;;0.20;82.90;;;;;;5032605;28;19948;-72
2021/12/25 11:31:51;;;;;;;;;;;0.30;83.10;;;;;;5032059;28;19939;-72
2021/12/25 11:34:18;;;;;;;;;;;0.40;83.50;;;;;;5031442;28;20297;-73
2021/12/25 11:36:47;;;;;;;;;;;0.50;83.80;;;;;;5032411;28;19917;-73
2021/12/25 11:39:15;;;;;;;;;;;1.00;85.30;;;;;;5033186;28;19909;-74
2021/12/25 11:41:41;;;;;;;;;;;1.80;83.50;;;;;;5032436;28;19917;-75
2021/12/25 11:44:27;;;;;;;;;;;2.60;82.10;;;;;;5032361;28;19982;-73
2021/12/25 11:46:52;;;;;;;;;;;3.30;79.60;;;;;;5032283;28;19963;-73
2021/12/25 11:49:18;;;;;;;;;;;3.90;77.00;;;;;;5032558;28;19914;-74
2021/12/25 11:51:46;;;;;;;;;;;4.30;75.80;;;;;;5031498;28;20286;-73
2021/12/25 11:54:40;;;;;;;;;;;4.30;73.80;;;;;;5031919;28;19917;-74
2021/12/25 11:57:34;;;;;;;;;;;4.40;73.00;;;;;;5032382;28;19960;-73
2021/12/25 11:59:52;;;;;;;;;;;4.30;72.80;;;;;;5032270;28;19925;-74
2021/12/25 12:02:37;;;;;;;;;;;4.30;72.60;;;;;;5031276;28;19948;-74
2021/12/25 12:05:21;;;;;;;;;;;4.20;72.30;;;;;;5031058;28;19995;-73
2021/12/25 12:08:18;;;;;;;;;;;4.00;70.80;;;;;;5031572;28;19917;-73
2021/12/25 12:10:44;;;;;;;;;;;3.80;70.70;;;;;;5027030;28;19913;-74
2021/12/25 12:13:29;;;;;;;;;;;3.60;71.10;;;;;;5031214;28;20015;-74
2021/12/25 12:15:56;;;;;;;;;;;3.50;71.00;;;;;;5031329;28;19932;-74
2021/12/25 12:18:28;;;;;;;;;;;3.60;72.10;;;;;;5031914;28;19917;-73
2021/12/25 12:21:07;;;;;;;;;;;3.60;72.00;;;;;;5032211;28;19902;-73
2021/12/25 12:23:45;;;;;;;;;;;3.70;71.90;;;;;;5030765;28;19999;-73
2021/12/25 12:26:13;;;;;;;;;;;3.70;71.80;;;;;;5030969;28;20063;-74
2021/12/25 12:28:46;;;;;;;;;;;3.70;71.70;;;;;;5032244;28;20228;-75
2021/12/25 12:31:30;;;;;;;;;;;3.70;71.40;;;;;;5031477;28;19939;-74
2021/12/25 12:33:55;;;;;;;;;;;3.60;70.80;;;;;;5031270;28;19987;-74
2021/12/25 12:36:22;;;;;;;;;;;3.50;70.70;;;;;;5031728;28;20285;-73
2021/12/25 12:38:52;;;;;;;;;;;3.50;70.70;;;;;;5032376;28;19944;-74
2021/12/25 12:41:21;;;;;;;;;;;3.30;70.90;;;;;;5032154;28;19972;-74
2021/12/25 12:44:07;;;;;;;;;;;3.20;71.30;;;;;;5032097;28;20270;-73
2021/12/25 12:46:48;;;;;;;;;;;3.20;71.30;;;;;;5036127;28;19960;-73
2021/12/25 12:49:14;;;;;;;;;;;3.10;71.70;;;;;;5035791;28;19913;-74
2021/12/25 12:51:39;;;;;;;;;;;3.10;71.50;;;;;;5035607;28;19913;-74
2021/12/25 12:54:05;;;;;;;;;;;3.10;72.10;;;;;;5036141;28;19920;-73
2021/12/25 12:56:30;;;;;;;;;;;3.10;72.10;;;;;;5034564;28;20015;-73
2021/12/25 12:58:57;;;;;;;;;;;3.10;72.60;;;;;;5035562;28;19964;-75
2021/12/25 13:01:24;;;;;;;;;;;3.10;72.10;;;;;;5035632;28;19999;-75
2021/12/25 13:04:00;;;;;;;;;;;3.10;72.30;;;;;;5035539;28;19983;-75
2021/12/25 13:06:26;;;;;;;;;;;3.10;72.40;;;;;;5035444;28;19909;-75
2021/12/25 13:08:52;;;;;;;;;;;3.00;72.20;;;;;;5035921;28;20339;-75
2021/12/25 13:11:24;;;;;;;;;;;3.00;73.50;;;;;;5034249;28;19923;-76
2021/12/25 13:13:57;;;;;;;;;;;3.10;73.30;;;;;;5036719;28;19913;-75
2021/12/25 13:16:24;;;;;;;;;;;3.20;73.20;;;;;;5035381;28;19917;-75
2021/12/25 13:18:51;;;;;;;;;;;3.00;72.40;;;;;;5035218;28;19913;-76
2021/12/25 13:21:17;;;;;;;;;;;2.90;71.80;;;;;;5035253;28;20331;-77
2021/12/25 13:23:52;;;;;;;;;;;2.80;71.00;;;;;;5035778;28;19992;-74
2021/12/25 13:26:22;;;;;;;;;;;2.50;70.40;;;;;;5034887;28;19927;-73
2021/12/25 13:28:49;;;;;;;;;;;2.40;70.90;;;;;;5033953;28;20343;-74
2021/12/25 13:31:18;;;;;;;;;;;2.30;70.60;;;;;;5034797;28;19925;-75
2021/12/25 13:33:51;;;;;;;;;;;2.40;72.40;;;;;;5033511;28;20390;-74
2021/12/25 13:36:18;;;;;;;;;;;2.10;71.10;;;;;;5034998;28;19939;-74
2021/12/25 13:38:50;;;;;;;;;;;2.10;72.00;;;;;;5034478;28;19909;-75
2021/12/25 13:41:26;;;;;;;;;;;2.30;72.90;;;;;;5033543;28;20236;-74
2021/12/25 13:44:02;;;;;;;;;;;2.20;73.50;;;;;;5033859;28;20003;-75
2021/12/25 13:46:35;;;;;;;;;;;2.30;73.80;;;;;;5035532;28;20043;-74
2021/12/25 13:49:01;;;;;;;;;;;2.30;73.40;;;;;;5035541;28;19925;-74
2021/12/25 13:51:26;;;;;;;;;;;2.30;73.40;;;;;;5035124;28;19913;-74
2021/12/25 13:53:52;;;;;;;;;;;2.20;73.70;;;;;;5033704;28;19909;-74
2021/12/25 13:56:17;;;;;;;;;;;2.10;73.70;;;;;;5033395;28;19974;-74
2021/12/25 13:58:43;;;;;;;;;;;2.10;73.80;;;;;;5034871;28;19921;-74
2021/12/25 14:01:13;;;;;;;;;;;2.10;73.90;;;;;;5034253;28;20004;-74
2021/12/25 14:03:38;;;;;;;;;;;2.00;73.90;;;;;;5033224;28;19913;-74
2021/12/25 14:06:05;;;;;;;;;;;2.00;74.60;;;;;;5034678;28;19919;-74
2021/12/25 14:08:31;;;;;;;;;;;2.10;75.20;;;;;;5033119;28;19972;-74
2021/12/25 14:11:01;;;;;;;;;;;2.10;75.10;;;;;;5034312;28;19920;-74
2021/12/25 14:13:28;;;;;;;;;;;2.10;74.90;;;;;;5034036;28;19931;-73
2021/12/25 14:15:54;;;;;;;;;;;2.10;75.50;;;;;;5034007;28;20338;-73
2021/12/25 14:18:21;;;;;;;;;;;2.10;75.70;;;;;;5033906;28;20345;-72
2021/12/25 14:20:47;;;;;;;;;;;2.10;76.00;;;;;;5033623;28;19909;-73
2021/12/25 14:23:15;;;;;;;;;;;2.10;75.90;;;;;;5033712;28;19920;-73
2021/12/25 14:25:46;;;;;;;;;;;2.00;76.40;;;;;;5034022;28;19924;-74
2021/12/25 14:28:13;;;;;;;;;;;2.00;76.40;;;;;;5032640;28;19932;-74
2021/12/25 14:30:41;;;;;;;;;;;1.90;76.20;;;;;;5033287;28;19913;-74
2021/12/25 14:33:14;;;;;;;;;;;2.10;76.60;;;;;;5034127;28;20012;-74
2021/12/25 14:35:40;;;;;;;;;;;1.90;76.30;;;;;;5033899;28;19913;-73
2021/12/25 14:38:05;;;;;;;;;;;1.90;76.70;;;;;;5033671;28;20237;-74
2021/12/25 14:40:33;;;;;;;;;;;2.00;77.30;;;;;;5033710;28;19956;-73
2021/12/25 14:43:05;;;;;;;;;;;1.80;77.10;;;;;;5033217;28;20362;-73
2021/12/25 14:45:46;;;;;;;;;;;1.70;77.10;;;;;;5032566;28;19913;-73
2021/12/25 14:48:12;;;;;;;;;;;1.60;77.40;;;;;;5033985;28;20016;-73
2021/12/25 14:50:38;;;;;;;;;;;1.50;77.50;;;;;;5033175;28;19992;-74
2021/12/25 14:53:03;;;;;;;;;;;1.50;77.70;;;;;;5033188;28;19921;-74
2021/12/25 14:55:34;;;;;;;;;;;1.30;77.70;;;;;;5032991;28;20308;-73
2021/12/25 14:58:07;;;;;;;;;;;1.30;78.00;;;;;;5033379;28;19939;-72
2021/12/25 15:00:32;;;;;;;;;;;1.20;78.00;;;;;;5033018;28;19913;-72
2021/12/25 15:03:27;;;;;;;;;;;1.20;78.20;;;;;;5033245;28;19920;-73
2021/12/25 15:05:54;;;;;;;;;;;1.20;78.40;;;;;;5026585;28;19914;-72
2021/12/25 15:08:31;;;;;;;;;;;1.10;78.60;;;;;;5031698;28;20006;-73
2021/12/25 15:11:04;;;;;;;;;;;1.00;78.50;;;;;;5032729;28;19913;-72
2021/12/25 15:13:30;;;;;;;;;;;1.00;78.80;;;;;;5033048;28;19925;-72
2021/12/25 15:15:57;;;;;;;;;;;0.90;78.80;;;;;;5031436;28;19917;-72
2021/12/25 15:18:26;;;;;;;;;;;0.90;78.80;;;;;;5032755;28;19920;-72
2021/12/25 15:21:05;;;;;;;;;;;0.80;78.90;;;;;;5032079;28;19967;-74
2021/12/25 15:23:31;;;;;;;;;;;0.80;79.00;;;;;;5032611;28;19913;-73
2021/12/25 15:26:04;;;;;;;;;;;0.70;79.00;;;;;;5032655;28;19928;-72
2021/12/25 15:28:29;;;;;;;;;;;0.70;79.20;;;;;;5032472;28;19913;-73
2021/12/25 15:30:55;;;;;;;;;;;0.70;79.20;;;;;;5031679;28;19936;-72
2021/12/25 15:33:20;;;;;;;;;;;0.60;79.30;;;;;;5032121;28;19967;-72